Sierra Nevada Aquatic Research Lab (SNARL) Reserve, California Weather observations

Data are for 10 minute period ending at time listed.
 Day   Time   Solar   Ave.   Ave.  Ave.  Vector  Max.   Baro.   Total    
  of    of     Rad.   Air    Rel.  Wind   Wind   Wind  Press.  Precip.   
Year   Day            Temp.  Hum.  Speed  Dir.   Gust                    
2017   (PST)  Kw/m2    F      %     mph   deg.    mph    mb.     in.     
-------------------------------------------------------------------------
  81   17:30   0.07   34.2    55    9.3   241    18.6   778.2    0.00 
  81   17:40   0.07   34.6    52   13.6   254    23.5   778.1    0.00 
  81   17:50   0.05   33.3    62   12.7   284    22.5   778.3    0.00 
  81   18:00   0.02   32.6    62   13.8   261    20.8   778.3    0.00 
  81   18:10   0.01   33.2    58    9.8   233    22.1   778.2    0.00 
  81   18:20   0.00   34.4    49   14.2   222    29.6   778.0    0.00 
  81   18:30   0.00   34.3    50   23.5   214    34.4   777.9    0.00 
  81   18:40   0.00   34.1    49   20.3   212    29.9   778.0    0.00 
  81   18:50   0.00   34.5    46   13.2   204    22.4   778.0    0.00 
  81   19:00   0.00   34.2    47   16.8   206    28.2   778.1    0.00 
  81   19:10   0.00   34.2    46   14.3   210    22.5   778.1    0.00 
  81   19:20   0.00   33.8    46   10.1   219    22.2   778.1    0.00 
  81   19:30   0.00   33.6    47    7.1   235    17.2   778.2    0.00 
  81   19:40   0.00   32.2    60    9.6   317    19.4   778.3    0.00 
  81   19:50   0.00   30.6    67    8.5   297    16.3   778.3    0.00 
  81   20:00   0.00   30.2    67    7.0   293    13.2   778.4    0.00 
  81   20:10   0.00   30.4    62    6.0   270    11.2   778.5    0.00 
  81   20:20   0.00   30.5    61    6.7   281    10.5   778.6    0.00 
  81   20:30   0.00   30.5    60    8.0   281    12.8   778.8    0.00 
  81   20:40   0.00   30.6    61    8.9   272    16.3   779.0    0.00 
  81   20:50   0.00   29.9    65   11.9   266    18.3   779.0    0.00 
  81   21:00   0.00   29.5    66   12.6   266    19.4   779.0    0.00 
  81   21:10   0.00   30.2    59   10.0   264    15.0   779.0    0.00 
  81   21:20   0.00   30.4    54    9.0   276    15.5   779.0    0.00 
  81   21:30   0.00   29.9    62    9.9   271    15.3   779.0    0.00 
  81   21:40   0.00   29.3    60    8.3   268    13.4   779.0    0.00 
  81   21:50   0.00   29.9    53   13.4   229    18.2   779.0    0.00 
  81   22:00   0.00   30.6    50   12.1   229    18.0   779.1    0.00 
  81   22:10   0.00   30.3    54    8.1   277    11.3   779.2    0.00 
  81   22:20   0.00   29.9    58    6.2   279    11.1   779.3    0.00 
  81   22:30   0.00   29.3    63    6.8   287    11.4   779.3    0.00 
  81   22:40   0.00   28.4    67    5.8   269     9.5   779.3    0.00 
  81   22:50   0.00   28.0    66    5.5   273     8.4   779.3    0.00 
  81   23:00   0.00   27.5    68    4.9   322     8.3   779.4    0.00 
  81   23:10   0.00   27.2    68    4.4   279     8.3   779.5    0.00 
  81   23:20   0.00   27.5    67    4.2   282     8.8   779.5    0.00 
  81   23:30   0.00   27.7    66    4.5   269     7.2   779.5    0.00 
  81   23:40   0.00   27.5    66    4.8   270     7.8   779.6    0.00 
  81   23:50   0.00   27.2    66    6.7   270    10.8   779.6    0.00 
  82    0:00   0.00   27.6    65    6.2   272     9.4   779.6    0.00 
  82    0:10   0.00   26.9    66    8.4   256    11.6   779.6    0.00 
  82    0:20   0.00   26.6    66   10.6   255    14.2   779.6    0.00 
  82    0:30   0.00   26.6    65    8.6   262    12.6   779.7    0.00 
  82    0:40   0.00   26.8    63    8.8   264    13.7   779.8    0.00 
  82    0:50   0.00   27.4    62    8.3   268    13.3   779.8    0.00 
  82    1:00   0.00   27.6    62    6.9   269     9.6   779.8    0.00 
  82    1:10   0.00   27.2    62    6.8   257     9.4   779.7    0.00 
  82    1:20   0.00   25.6    63    5.7   303    11.1   779.8    0.00 
  82    1:30   0.00   24.8    68    6.5   242    10.0   780.0    0.00 
  82    1:40   0.00   25.0    69    7.7   244    13.9   780.0    0.00 
  82    1:50   0.00   23.7    70    5.9   240     8.2   780.1    0.00 
  82    2:00   0.00   24.2    67    7.0   242     9.6   780.1    0.00 
  82    2:10   0.00   23.4    68   10.6   240    12.5   780.2    0.00 
  82    2:20   0.00   23.8    65    9.5   232    12.1   780.2    0.00 
  82    2:30   0.00   24.4    62   10.0   230    15.3   780.2    0.00 
  82    2:40   0.00   25.3    61    6.5   258    12.3   780.3    0.00 
  82    2:50   0.00   23.6    66    5.6   256     8.2   780.4    0.00 
  82    3:00   0.00   23.4    67    7.6   256    11.0   780.4    0.00 
  82    3:10   0.00   23.6    68   10.4   246    12.6   780.5    0.00 
  82    3:20   0.00   23.3    67    9.7   241    12.1   780.4    0.00 
  82    3:30   0.00   23.6    64    5.8   278     8.9   780.4    0.00 
  82    3:40   0.00   24.2    62    4.9   285     8.3   780.5    0.00 
  82    3:50   0.00   23.4    62    5.1   278    10.7   780.6    0.00 
  82    4:00   0.00   23.0    62   12.1   212    15.0   780.8    0.00 
  82    4:10   0.00   23.2    60    7.1   242    14.2   780.9    0.00 
  82    4:20   0.00   23.7    62    9.0   263    12.6   781.2    0.00 
  82    4:30   0.00   24.0    60    8.9   260    12.9   781.3    0.00 
  82    4:40   0.00   23.5    62    8.7   258    11.5   781.4    0.00 
  82    4:50   0.00   23.1    62    8.4   244    10.7   781.5    0.00 
  82    5:00   0.00   22.0    64    7.0   234     9.6   781.5    0.00 
  82    5:10   0.00   22.5    63    8.7   231    11.7   781.6    0.00 
  82    5:20   0.00   22.5    61   10.6   221    12.8   781.6    0.00 
  82    5:30   0.00   23.4    59   11.5   216    16.2   781.5    0.00 
  82    5:40   0.00   24.7    58    7.9   214    15.6   781.7    0.00 
  82    5:50   0.00   23.5    60    3.0   268     8.3   781.9    0.00 
  82    6:00   0.00   23.6    60    5.7   268     8.6   781.9    0.00 
  82    6:10   0.00   23.0    62    4.3   275     7.3   782.0    0.00 
  82    6:20   0.04   23.4    61    8.5   222    11.5   782.0    0.00 
  82    6:30   0.07   25.1    56    6.0   226    10.6   782.0    0.00 
  82    6:40   0.11   25.9    55    9.2   221    15.4   782.1    0.00 
  82    6:50   0.15   27.0    53    9.3   218    15.1   782.1    0.00 
  82    7:00   0.19   27.5    51    9.4   220    13.0   782.2    0.00 
  82    7:10   0.22   28.7    51    6.1   239     9.1   782.3    0.00 
  82    7:20   0.26   29.6    50    5.7   290    11.5   782.4    0.00 
  82    7:30   0.30   30.3    49    4.6   288     7.7   782.6    0.00 
  82    7:40   0.34   31.4    48    4.6   289     7.5   782.7    0.00 
  82    7:50   0.35   33.4    45    3.1   284     5.8   782.8    0.00 
  82    8:00   0.41   33.3    45    3.9   306     6.1   783.0    0.00 
  82    8:10   0.45   33.7    45    4.6   289     7.1   783.1    0.00 
  82    8:20   0.48   33.9    44    4.4   286     6.9   783.2    0.00 
  82    8:30   0.52   34.5    44    4.0   264     5.8   783.3    0.00 
  82    8:40   0.55   35.2    44    5.3   242     7.1   783.4    0.00 
  82    8:50   0.59   36.3    42    5.0   244     7.5   783.4    0.00 
  82    9:00   0.62   38.7    37    3.0   253     5.3   783.4    0.00 
  82    9:10   0.65   40.1    34    2.7   258     4.8   783.5    0.00 
  82    9:20   0.68   41.3    32    1.7   274     3.6   783.7    0.00 
  82    9:30   0.71   43.6    30    1.2   250     2.5   783.7    0.00 
  82    9:40   0.73   42.8    32    2.3   168     3.7   783.7    0.00 
  82    9:50   0.76   42.7    34    2.6   144     5.0   783.6    0.00 
  82   10:00   0.78   42.6    32    2.4   147     4.5   783.7    0.00 
  82   10:10   0.81   43.2    30    2.0   105     5.7   783.7    0.00 
  82   10:20   0.83   40.4    38    4.8    93     6.8   783.7    0.00 
  82   10:30   0.84   39.0    40    3.6    98     5.6   783.7    0.00 
  82   10:40   0.86   40.6    37    2.9   105     4.6   783.7    0.00 
  82   10:50   0.88   41.9    35    2.3   134     3.5   783.7    0.00 
  82   11:00   0.89   44.5    29    0.9   190     2.5   783.8    0.00 
  82   11:10   0.90   44.2    30    2.0   173     3.4   783.7    0.00 
  82   11:20   0.91   43.6    31    2.0   138     3.2   783.7    0.00 
  82   11:30   0.92   44.1    32    3.3   110     5.8   783.7    0.00 
  82   11:40   0.93   41.3    36    4.4    99     5.8   783.7    0.00 
  82   11:50   0.93   42.7    35    3.7   113     5.2   783.8    0.00 
  82   12:00   0.93   43.3    31    3.0    93     4.4   783.8    0.00 
  82   12:10   0.93   44.8    28    2.2   118     3.4   783.8    0.00 
  82   12:20   0.93   45.9    26    2.5   127     4.8   783.8    0.00 
  82   12:30   0.93   47.4    24    1.3   149     4.3   783.7    0.00 
  82   12:40   0.91   47.8    25    2.2   131     4.7   783.6    0.00 
  82   12:50   0.91   46.3    27    3.7   109     4.9   783.6    0.00 
  82   13:00   0.90   46.3    27    2.5   113     4.4   783.5    0.00 
  82   13:10   0.89   46.7    26    3.0   110     4.2   783.4    0.00 
  82   13:20   0.87   46.4    29    2.5   134     3.7   783.4    0.00 
  82   13:30   0.86   47.9    25    2.3   129     4.3   783.4    0.00 
  82   13:40   0.84   46.0    28    4.8    96     6.6   783.3    0.00 
  82   13:50   0.82   44.2    30    4.9    95     6.2   783.2    0.00 
  82   14:00   0.80   45.7    26    3.0   129     4.7   783.2    0.00 
  82   14:10   0.77   46.7    25    2.1   196     3.3   783.2    0.00 
  82   14:20   0.75   48.4    23    1.3   141     2.2   783.2    0.00 
  82   14:30   0.73   49.4    24    2.1   132     2.9   783.1    0.00 
  82   14:40   0.70   49.0    25    1.9   218     4.2   783.1    0.00 
  82   14:50   0.67   49.0    23    4.8   283    13.7   783.2    0.00 
  82   15:00   0.64   45.7    29    8.0   286    12.4   783.2    0.00 
  82   15:10   0.61   45.8    29    8.1   285    16.0   783.2    0.00 
  82   15:20   0.57   44.8    32    9.5   287    15.6   783.3    0.00 
  82   15:30   0.54   44.6    33    8.9   283    12.6   783.4    0.00 
  82   15:40   0.51   45.5    32    6.5   273    10.9   783.5    0.00 
  82   15:50   0.47   46.3    31    6.4   270    10.5   783.5    0.00 
  82   16:00   0.44   45.9    32    6.3   280    12.3   783.6    0.00 
  82   16:10   0.40   46.4    27    4.7   256     8.8   783.6    0.00 
  82   16:20   0.36   45.7    30    9.0   239    14.5   783.6    0.00 
  82   16:30   0.32   44.4    33   10.9   240    17.3   783.6    0.00 
  82   16:40   0.28   43.8    35   10.0   236    15.1   783.7    0.00 
  82   16:50   0.25   43.1    37   10.6   232    15.1   783.7    0.00 
  82   17:00   0.21   42.4    37   10.1   228    14.1   783.7    0.00 
  82   17:10   0.18   41.8    38    9.7   229    15.8   783.7    0.00 
  82   17:20   0.14   41.2    41   10.6   222    14.8   783.8    0.00 

Return to SNARL Reserve graphs page.


Western Regional Climate Center,wrcc@dri.edu